Time;durP1;ratioP1;P1;durP2;ratioP2;P2;SDS_P1;SDS_P2;PMS_P1;PMS_P2;Temp;Humidity;BMP_temperature;BMP_pressure;BME280_temperature;BME280_humidity;BME280_pressure;Samples;Min_cycle;Max_cycle;Signal;HPM_P1;HPM_P2
2023/05/19 00:01:29;;;;;;;8.13;4.10;;;7.70;99.90;;;;;;5042511;28;20487;-82
2023/05/19 00:03:57;;;;;;;12.25;3.83;;;8.00;99.90;;;;;;5039455;28;20040;-82
2023/05/19 00:06:30;;;;;;;13.00;4.10;;;7.70;99.90;;;;;;5040305;28;20120;-82
2023/05/19 00:09:00;;;;;;;8.90;3.95;;;7.70;99.90;;;;;;5041999;28;20044;-82
2023/05/19 00:11:27;;;;;;;13.75;4.30;;;7.70;99.90;;;;;;5062044;28;20028;-82
2023/05/19 00:13:54;;;;;;;14.88;4.95;;;7.70;99.90;;;;;;5057033;28;20028;-83
2023/05/19 00:16:20;;;;;;;13.70;4.88;;;7.70;99.90;;;;;;5063594;28;20044;-82
2023/05/19 00:18:47;;;;;;;13.00;4.63;;;7.60;99.90;;;;;;5065044;28;20499;-84
2023/05/19 00:21:12;;;;;;;12.68;4.22;;;7.60;99.90;;;;;;5047341;28;20048;-82
2023/05/19 00:23:38;;;;;;;10.82;3.83;;;7.60;99.90;;;;;;5048480;28;20537;-83
2023/05/19 00:26:04;;;;;;;8.73;4.30;;;7.60;99.90;;;;;;5062756;28;20040;-82
2023/05/19 00:28:29;;;;;;;14.40;5.53;;;7.70;99.90;;;;;;5059814;28;20782;-82
2023/05/19 00:30:55;;;;;;;12.15;4.20;;;7.60;99.90;;;;;;5060505;28;20033;-82
2023/05/19 00:33:21;;;;;;;9.25;5.75;;;7.60;99.90;;;;;;5046500;28;20033;-82
2023/05/19 00:35:46;;;;;;;6.75;4.22;;;7.60;99.90;;;;;;5040760;28;20048;-82
2023/05/19 00:38:12;;;;;;;9.45;5.25;;;7.60;99.90;;;;;;5040168;28;20478;-82
2023/05/19 00:40:37;;;;;;;10.55;4.65;;;7.60;99.90;;;;;;5054650;28;20163;-82
2023/05/19 00:43:04;;;;;;;15.93;6.38;;;7.60;99.90;;;;;;5041241;28;20044;-82
2023/05/19 00:45:30;;;;;;;14.55;5.28;;;7.60;99.90;;;;;;5042304;28;20056;-83
2023/05/19 00:47:55;;;;;;;12.43;5.38;;;7.60;99.90;;;;;;5057001;28;20028;-82
2023/05/19 00:50:23;;;;;;;12.98;5.28;;;7.60;99.90;;;;;;5062632;28;20055;-82
2023/05/19 00:52:49;;;;;;;15.40;5.57;;;7.60;99.90;;;;;;5040426;28;20060;-82
2023/05/19 00:55:15;;;;;;;12.25;6.07;;;7.60;99.90;;;;;;5038240;28;20051;-82
2023/05/19 00:57:41;;;;;;;12.52;4.70;;;7.60;99.90;;;;;;5065595;28;20041;-83
2023/05/19 01:00:08;;;;;;;14.80;5.10;;;7.60;99.90;;;;;;5045387;28;20777;-82
2023/05/19 01:02:33;;;;;;;13.27;5.97;;;7.50;99.90;;;;;;5064525;28;20490;-82
2023/05/19 01:05:00;;;;;;;15.18;5.82;;;7.50;99.90;;;;;;5065546;28;20044;-82
2023/05/19 01:07:26;;;;;;;14.75;6.03;;;7.50;99.90;;;;;;5056760;28;20143;-82
2023/05/19 01:09:52;;;;;;;15.38;5.50;;;7.50;99.90;;;;;;5039427;28;20052;-82
2023/05/19 01:12:18;;;;;;;15.73;6.10;;;7.50;99.90;;;;;;5060625;28;20040;-83
2023/05/19 01:14:44;;;;;;;17.17;6.22;;;7.50;99.90;;;;;;5057753;28;20044;-82
2023/05/19 01:17:27;;;;;;;15.15;6.30;;;7.50;99.90;;;;;;5042774;28;20403;-82
2023/05/19 01:20:20;;;;;;;23.15;7.45;;;7.50;99.90;;;;;;5039125;28;20530;-83
2023/05/19 01:23:16;;;;;;;17.42;6.28;;;7.30;99.90;;;;;;5040312;28;20052;-82
2023/05/19 01:26:03;;;;;;;15.05;6.10;;;7.40;99.90;;;;;;5042439;28;20059;-82
2023/05/19 01:29:09;;;;;;;14.13;6.40;;;7.40;99.90;;;;;;5061531;28;20044;-82
2023/05/19 01:31:37;;;;;;;15.10;6.43;;;7.40;99.90;;;;;;5056884;28;20044;-82
2023/05/19 01:34:05;;;;;;;19.42;6.03;;;7.40;99.90;;;;;;5046749;28;20090;-82
2023/05/19 01:36:32;;;;;;;13.25;5.70;;;7.30;99.90;;;;;;5040406;28;20055;-83
2023/05/19 01:38:59;;;;;;;10.88;5.78;;;7.30;99.90;;;;;;5042193;28;20104;-83
2023/05/19 01:41:27;;;;;;;17.08;6.50;;;7.40;99.90;;;;;;5041242;28;20426;-83
2023/05/19 01:43:53;;;;;;;20.27;7.35;;;7.40;99.90;;;;;;5038090;28;20479;-82
2023/05/19 01:46:20;;;;;;;10.52;5.68;;;7.30;99.90;;;;;;5041994;28;20055;-82
2023/05/19 01:48:46;;;;;;;11.20;6.10;;;7.30;99.90;;;;;;5039157;28;20072;-82
2023/05/19 01:51:12;;;;;;;15.55;6.57;;;7.30;99.90;;;;;;5057619;28;20051;-82
2023/05/19 01:53:37;;;;;;;16.00;6.82;;;7.30;99.90;;;;;;5040026;28;20045;-82
2023/05/19 01:56:04;;;;;;;14.77;6.75;;;7.30;99.90;;;;;;5038042;28;20071;-82
2023/05/19 01:58:41;;;;;;;20.42;7.07;;;7.30;99.90;;;;;;5039115;28;20048;-82
2023/05/19 02:01:35;;;;;;;15.82;6.90;;;7.30;99.90;;;;;;5054464;28;20048;-82
2023/05/19 02:04:17;;;;;;;14.70;7.80;;;7.30;99.90;;;;;;5055936;28;20080;-83
2023/05/19 02:07:00;;;;;;;16.77;7.50;;;7.20;99.90;;;;;;5042395;28;20036;-82
2023/05/19 02:09:53;;;;;;;12.95;6.75;;;7.20;99.90;;;;;;5058415;28;20159;-82
2023/05/19 02:12:24;;;;;;;20.48;7.93;;;7.20;99.90;;;;;;5043943;28;20040;-82
2023/05/19 02:15:00;;;;;;;13.45;7.68;;;7.10;99.90;;;;;;5054258;28;20045;-82
2023/05/19 02:17:31;;;;;;;14.32;7.38;;;7.20;99.90;;;;;;5066863;28;20043;-82
2023/05/19 02:19:57;;;;;;;17.73;7.30;;;7.20;99.90;;;;;;5048248;28;20052;-83
2023/05/19 02:22:23;;;;;;;14.73;7.53;;;7.10;99.90;;;;;;5047661;28;20044;-82
2023/05/19 02:24:50;;;;;;;14.35;7.25;;;7.10;99.90;;;;;;5062230;28;20039;-82
2023/05/19 02:27:16;;;;;;;12.20;6.57;;;7.10;99.90;;;;;;5041995;28;20040;-82
2023/05/19 02:29:42;;;;;;;17.00;7.50;;;7.10;99.90;;;;;;5065947;28;20115;-82
2023/05/19 02:32:07;;;;;;;13.43;7.85;;;7.10;99.90;;;;;;5061349;28;20037;-83
2023/05/19 02:34:33;;;;;;;14.52;7.68;;;7.10;99.90;;;;;;5066647;28;20028;-82
2023/05/19 02:36:58;;;;;;;14.98;7.75;;;7.10;99.90;;;;;;5067223;28;20036;-82
2023/05/19 02:39:25;;;;;;;14.35;8.43;;;7.00;99.90;;;;;;5068285;28;20036;-82
2023/05/19 02:41:50;;;;;;;15.05;8.60;;;7.00;99.90;;;;;;5068341;28;20044;-82
2023/05/19 02:44:16;;;;;;;14.23;8.30;;;7.00;99.90;;;;;;5050925;28;20044;-82
2023/05/19 02:46:41;;;;;;;13.20;8.70;;;7.00;99.90;;;;;;5049270;28;20092;-82
2023/05/19 02:49:07;;;;;;;18.92;8.43;;;6.90;99.90;;;;;;5065268;28;20498;-82
2023/05/19 02:51:32;;;;;;;19.50;9.00;;;7.00;99.90;;;;;;5066324;28;20036;-82
2023/05/19 02:53:58;;;;;;;14.98;7.70;;;7.00;99.90;;;;;;5065659;28;20054;-82
2023/05/19 02:56:23;;;;;;;13.60;8.20;;;6.90;99.90;;;;;;5045707;28;20040;-82
2023/05/19 02:58:49;;;;;;;11.80;7.15;;;6.90;99.90;;;;;;5066764;28;20060;-82
2023/05/19 03:01:15;;;;;;;11.57;7.80;;;6.90;99.90;;;;;;5046717;28;20059;-83
2023/05/19 03:03:40;;;;;;;16.83;8.70;;;6.90;99.90;;;;;;5069420;28;20099;-82
2023/05/19 03:06:07;;;;;;;12.23;6.55;;;6.90;99.90;;;;;;5066316;28;20068;-82
2023/05/19 03:08:34;;;;;;;12.27;8.25;;;6.90;99.90;;;;;;5067375;28;20040;-82
2023/05/19 03:10:59;;;;;;;17.55;8.80;;;6.80;99.90;;;;;;5036504;28;20043;-82
2023/05/19 03:13:25;;;;;;;13.80;8.55;;;6.80;99.90;;;;;;5064578;28;20647;-82
2023/05/19 03:15:51;;;;;;;17.20;10.05;;;6.80;99.90;;;;;;5047166;28;20041;-82
2023/05/19 03:18:17;;;;;;;15.43;9.13;;;6.80;99.90;;;;;;5065556;28;20033;-82
2023/05/19 03:20:43;;;;;;;13.60;8.98;;;6.80;99.90;;;;;;5063956;28;20067;-82
2023/05/19 03:23:09;;;;;;;15.27;8.98;;;6.80;99.90;;;;;;5046942;28;20048;-82
2023/05/19 03:25:35;;;;;;;13.82;9.55;;;6.80;99.90;;;;;;5049261;28;20049;-82
2023/05/19 03:28:00;;;;;;;19.52;9.07;;;6.70;99.90;;;;;;5067135;28;20040;-82
2023/05/19 03:30:26;;;;;;;14.98;9.63;;;6.70;99.90;;;;;;5063979;28;20044;-82
2023/05/19 03:32:52;;;;;;;14.82;9.73;;;6.70;99.90;;;;;;5066194;28;20043;-82
2023/05/19 03:35:17;;;;;;;16.63;10.07;;;6.80;99.90;;;;;;5047456;28;20049;-82
2023/05/19 03:37:43;;;;;;;13.02;8.88;;;6.70;99.90;;;;;;5064051;28;20091;-82
2023/05/19 03:40:09;;;;;;;10.73;8.50;;;6.80;99.90;;;;;;5046936;28;20044;-82
2023/05/19 03:42:35;;;;;;;15.40;9.15;;;6.80;99.90;;;;;;5064709;28;20059;-82
2023/05/19 03:45:00;;;;;;;12.82;9.10;;;6.70;99.90;;;;;;5046606;28;20044;-82
2023/05/19 03:47:26;;;;;;;14.18;9.70;;;6.80;99.90;;;;;;5065155;28;20037;-82
2023/05/19 03:49:51;;;;;;;11.63;8.68;;;6.80;99.90;;;;;;5045361;28;20116;-82
2023/05/19 03:52:17;;;;;;;12.75;8.45;;;6.80;99.90;;;;;;5049114;28;20128;-82
2023/05/19 03:54:43;;;;;;;10.73;7.43;;;6.80;99.90;;;;;;5066010;28;20139;-82
2023/05/19 03:57:12;;;;;;;19.30;9.25;;;6.80;99.90;;;;;;5064732;28;20033;-82
2023/05/19 03:59:40;;;;;;;11.43;8.68;;;6.80;99.90;;;;;;5047408;28;20044;-82
2023/05/19 04:02:05;;;;;;;10.20;7.97;;;6.80;99.90;;;;;;5044726;28;20102;-82
2023/05/19 04:04:31;;;;;;;16.50;8.32;;;6.90;99.90;;;;;;5047504;28;20423;-82
2023/05/19 04:06:57;;;;;;;9.40;7.40;;;7.20;99.90;;;;;;5046570;28;20123;-82
2023/05/19 04:09:25;;;;;;;13.82;8.20;;;7.60;99.90;;;;;;5042898;28;20487;-82
2023/05/19 04:11:51;;;;;;;9.02;6.75;;;8.00;99.90;;;;;;5048358;28;20042;-82
2023/05/19 04:14:16;;;;;;;7.53;5.40;;;8.00;99.90;;;;;;5062933;28;20479;-82
2023/05/19 04:16:42;;;;;;;13.07;8.23;;;8.00;99.90;;;;;;5048079;28;20052;-82
2023/05/19 04:19:07;;;;;;;7.57;6.43;;;8.10;99.90;;;;;;5065393;28;20040;-82
2023/05/19 04:21:33;;;;;;;11.38;7.13;;;8.40;99.90;;;;;;5045293;28;20044;-82
2023/05/19 04:23:58;;;;;;;9.32;6.22;;;8.40;99.90;;;;;;5065911;28;20051;-82
2023/05/19 04:26:25;;;;;;;5.55;4.97;;;8.60;99.90;;;;;;5064135;28;20041;-83
2023/05/19 04:28:52;;;;;;;6.97;5.22;;;9.10;99.90;;;;;;5046485;28;20059;-83
2023/05/19 04:31:20;;;;;;;8.75;5.43;;;9.90;99.90;;;;;;5064446;28;20039;-83
2023/05/19 04:33:47;;;;;;;9.98;5.57;;;10.50;99.90;;;;;;5064830;28;20037;-82
2023/05/19 04:36:12;;;;;;;8.63;5.30;;;10.80;99.90;;;;;;5064201;28;20040;-82
2023/05/19 04:38:39;;;;;;;7.82;5.07;;;11.00;99.90;;;;;;5063168;28;20464;-83
2023/05/19 04:41:09;;;;;;;7.40;5.32;;;11.10;99.90;;;;;;5065912;28;20087;-82
2023/05/19 04:43:34;;;;;;;11.30;5.78;;;11.00;99.90;;;;;;5043356;28;20111;-82
2023/05/19 04:46:00;;;;;;;6.30;5.68;;;11.10;99.90;;;;;;5063899;28;20040;-82
2023/05/19 04:48:29;;;;;;;8.75;5.55;;;11.10;99.90;;;;;;5061774;28;20077;-82
2023/05/19 04:50:56;;;;;;;9.90;5.20;;;11.10;99.90;;;;;;5062292;28;20128;-82
2023/05/19 04:53:24;;;;;;;9.43;5.22;;;11.20;99.90;;;;;;5061502;28;20033;-82
2023/05/19 04:55:50;;;;;;;9.55;5.38;;;11.30;99.90;;;;;;5064040;28;20045;-82
2023/05/19 04:58:15;;;;;;;8.32;4.80;;;11.40;99.90;;;;;;5062235;28;20044;-82
2023/05/19 05:00:41;;;;;;;9.18;4.85;;;11.60;99.90;;;;;;5039886;28;20779;-83
2023/05/19 05:03:07;;;;;;;8.15;5.68;;;11.60;99.90;;;;;;5044780;28;20040;-82
2023/05/19 05:05:33;;;;;;;11.73;5.38;;;11.60;99.90;;;;;;5044165;28;20045;-83
2023/05/19 05:07:59;;;;;;;9.55;4.97;;;11.50;99.90;;;;;;5061194;28;20071;-83
2023/05/19 05:10:25;;;;;;;8.70;4.20;;;11.60;99.90;;;;;;5041953;28;20475;-81
2023/05/19 05:12:53;;;;;;;14.13;5.00;;;11.80;99.90;;;;;;5060942;28;20032;-81
2023/05/19 05:15:20;;;;;;;7.03;4.05;;;12.50;99.90;;;;;;5060198;28;20047;-82
2023/05/19 05:17:46;;;;;;;11.27;4.85;;;13.30;99.90;;;;;;5041443;28;20498;-83
2023/05/19 05:20:12;;;;;;;11.13;3.55;;;14.60;99.90;;;;;;5062975;28;20070;-83
2023/05/19 05:22:38;;;;;;;9.55;3.35;;;15.90;99.90;;;;;;5044347;28;20467;-83
2023/05/19 05:25:04;;;;;;;7.88;3.50;;;16.50;99.90;;;;;;5061718;28;20029;-83
2023/05/19 05:27:31;;;;;;;8.50;3.28;;;16.90;99.90;;;;;;5042941;28;20032;-83
2023/05/19 05:29:56;;;;;;;10.25;3.33;;;17.20;99.90;;;;;;5043880;28;20045;-83
2023/05/19 05:32:22;;;;;;;8.13;2.80;;;18.10;99.90;;;;;;5061522;28;20055;-83
2023/05/19 05:34:48;;;;;;;6.53;2.67;;;18.40;99.90;;;;;;5059726;28;20051;-83
2023/05/19 05:37:14;;;;;;;8.15;2.60;;;19.30;99.90;;;;;;5043742;28;20043;-83
2023/05/19 05:39:39;;;;;;;4.22;2.20;;;19.80;99.90;;;;;;5067755;28;20041;-83
2023/05/19 05:42:07;;;;;;;7.97;2.50;;;20.90;99.90;;;;;;5045631;28;20127;-83
2023/05/19 05:44:34;;;;;;;9.88;2.70;;;21.40;99.90;;;;;;5045899;28;20055;-83
2023/05/19 05:47:00;;;;;;;7.72;3.20;;;21.50;99.90;;;;;;5042669;28;20501;-85
2023/05/19 05:49:26;;;;;;;6.18;2.22;;;20.10;99.90;;;;;;5064275;28;20047;-84
2023/05/19 05:51:52;;;;;;;8.75;2.72;;;19.70;99.90;;;;;;5065726;28;20037;-84
2023/05/19 05:54:21;;;;;;;7.40;2.80;;;19.00;99.90;;;;;;5067008;28;20478;-84
2023/05/19 05:56:47;;;;;;;9.82;2.92;;;18.00;99.90;;;;;;5064905;28;20051;-84
2023/05/19 05:59:14;;;;;;;7.80;2.67;;;17.60;99.90;;;;;;5062251;28;20111;-84
2023/05/19 06:01:40;;;;;;;5.40;2.53;;;16.90;99.90;;;;;;5044954;28;20048;-83
2023/05/19 06:04:06;;;;;;;11.25;3.25;;;16.60;99.90;;;;;;5058580;22;20053;-83
2023/05/19 06:06:32;;;;;;;11.15;2.15;;;16.20;99.90;;;;;;5020023;28;20063;-83
2023/05/19 06:08:57;;;;;;;6.72;2.95;;;16.40;99.90;;;;;;5021619;28;20033;-83
2023/05/19 06:11:23;;;;;;;7.22;2.85;;;16.20;99.90;;;;;;5021053;28;20095;-84
2023/05/19 06:13:49;;;;;;;6.55;2.72;;;16.30;99.90;;;;;;5042454;28;20073;-83
2023/05/19 06:16:15;;;;;;;6.00;2.50;;;16.20;99.90;;;;;;5041765;28;20338;-83
2023/05/19 06:18:40;;;;;;;11.95;3.05;;;16.40;99.90;;;;;;5040859;28;20395;-83
2023/05/19 06:21:08;;;;;;;6.47;2.72;;;16.20;99.90;;;;;;5018973;28;20538;-84
2023/05/19 06:23:34;;;;;;;24.67;3.33;;;16.30;99.90;;;;;;5019390;28;20049;-84
2023/05/19 06:26:00;;;;;;;8.75;2.63;;;16.50;99.90;;;;;;5020496;28;20087;-83
2023/05/19 06:28:26;;;;;;;5.32;2.28;;;16.70;99.90;;;;;;5007580;28;20046;-83
2023/05/19 06:30:51;;;;;;;8.65;2.60;;;16.70;99.90;;;;;;5021018;28;20403;-83
2023/05/19 06:33:17;;;;;;;4.95;1.90;;;16.60;99.90;;;;;;5039525;28;20036;-83
2023/05/19 06:35:42;;;;;;;10.57;2.72;;;16.60;99.90;;;;;;5037168;28;20047;-84
2023/05/19 06:38:08;;;;;;;12.70;2.42;;;16.70;99.90;;;;;;5040936;28;20038;-83
2023/05/19 06:40:35;;;;;;;7.57;1.90;;;16.60;99.90;;;;;;5023575;28;20041;-83
2023/05/19 06:43:01;;;;;;;9.68;2.25;;;16.20;99.90;;;;;;5040566;28;20464;-83
2023/05/19 06:45:27;;;;;;;13.38;2.25;;;16.40;99.90;;;;;;5024298;28;20118;-82
2023/05/19 06:47:53;;;;;;;7.30;2.30;;;16.30;99.90;;;;;;5018738;28;20038;-83
2023/05/19 06:50:18;;;;;;;9.18;2.28;;;16.60;99.90;;;;;;5039575;28;20038;-83
2023/05/19 06:52:45;;;;;;;8.68;2.22;;;16.60;99.90;;;;;;5022646;28;20043;-83
2023/05/19 06:55:11;;;;;;;5.85;2.10;;;16.90;99.90;;;;;;5037073;28;20041;-83
2023/05/19 06:57:37;;;;;;;10.27;2.78;;;16.90;99.90;;;;;;5024697;28;20388;-83
2023/05/19 07:00:04;;;;;;;7.45;2.47;;;17.20;99.90;;;;;;5031444;28;20101;-83
2023/05/19 07:02:30;;;;;;;10.18;2.67;;;17.40;99.90;;;;;;5026410;28;20048;-84
2023/05/19 07:04:56;;;;;;;6.95;1.77;;;17.50;99.90;;;;;;5009856;28;20059;-84
2023/05/19 07:07:21;;;;;;;8.65;2.20;;;17.60;99.90;;;;;;5039796;28;20083;-84
2023/05/19 07:09:47;;;;;;;12.07;2.13;;;17.90;99.90;;;;;;5013259;28;20037;-84
2023/05/19 07:12:13;;;;;;;9.48;2.42;;;17.80;99.90;;;;;;5021959;28;20120;-84
2023/05/19 07:14:38;;;;;;;8.80;2.00;;;17.60;99.90;;;;;;5010612;28;20124;-85
2023/05/19 07:17:04;;;;;;;8.23;2.00;;;17.10;99.90;;;;;;5022795;28;20380;-84
2023/05/19 07:19:29;;;;;;;6.68;1.52;;;17.00;99.90;;;;;;5039071;28;20037;-84
2023/05/19 07:21:56;;;;;;;7.90;1.75;;;17.00;99.90;;;;;;5021369;28;20049;-85
2023/05/19 07:24:21;;;;;;;5.80;1.23;;;17.10;99.90;;;;;;5020005;28;20440;-85
2023/05/19 07:26:47;;;;;;;4.82;1.40;;;16.90;99.90;;;;;;5042330;28;20120;-84
2023/05/19 07:29:14;;;;;;;7.22;2.35;;;16.90;99.90;;;;;;5011770;28;20040;-85
2023/05/19 07:31:40;;;;;;;8.02;1.50;;;17.40;99.90;;;;;;5006206;28;20045;-85
2023/05/19 07:34:06;;;;;;;13.38;2.58;;;17.20;99.90;;;;;;5008606;28;20048;-85
2023/05/19 07:36:34;;;;;;;10.90;1.92;;;17.40;99.90;;;;;;5022694;28;20095;-85
2023/05/19 07:39:01;;;;;;;11.82;1.52;;;17.30;99.90;;;;;;5023926;28;20040;-84
2023/05/19 07:41:27;;;;;;;9.15;2.03;;;17.50;99.90;;;;;;5041321;28;20431;-84
2023/05/19 07:43:52;;;;;;;5.60;1.77;;;17.70;99.90;;;;;;5015154;28;20400;-85
2023/05/19 07:57:24;;;;;;;6.07;1.83;;;17.80;99.00;;;;;;5039855;28;20080;-85
2023/05/19 07:59:49;;;;;;;9.35;2.55;;;17.30;99.30;;;;;;5024051;28;20483;-86
2023/05/19 08:02:18;;;;;;;10.10;2.42;;;17.30;98.40;;;;;;5028499;28;20041;-85
2023/05/19 08:05:05;;;;;;;10.80;2.42;;;17.30;99.10;;;;;;5026152;28;20025;-86
2023/05/19 08:07:31;;;;;;;6.32;1.50;;;17.50;99.10;;;;;;4995618;28;20725;-85
2023/05/19 08:10:22;;;;;;;5.07;2.08;;;17.00;97.10;;;;;;5008566;28;20053;-85
2023/05/19 08:13:05;;;;;;;6.38;1.67;;;17.00;98.40;;;;;;5008185;28;20045;-87
2023/05/19 08:15:40;;;;;;;7.40;1.85;;;17.00;99.90;;;;;;5045862;28;20033;-86
2023/05/19 08:18:05;;;;;;;6.05;1.90;;;17.30;99.30;;;;;;5048018;28;20051;-85
2023/05/19 08:20:32;;;;;;;6.45;1.50;;;17.40;98.60;;;;;;5028010;28;20037;-86
2023/05/19 08:22:58;;;;;;;10.68;1.80;;;17.70;98.90;;;;;;5046820;28;20045;-86
2023/05/19 08:25:24;;;;;;;4.10;1.67;;;17.60;99.40;;;;;;5033688;28;20396;-86
2023/05/19 08:27:50;;;;;;;4.97;1.30;;;17.60;98.50;;;;;;5028865;28;20044;-86
2023/05/19 08:30:15;;;;;;;6.03;1.63;;;17.70;98.90;;;;;;5033276;28;20049;-86
2023/05/19 08:32:41;;;;;;;5.30;1.90;;;18.00;98.50;;;;;;5041850;28;20044;-86
2023/05/19 08:35:08;;;;;;;5.45;1.40;;;17.90;97.90;;;;;;5042989;28;20051;-85
2023/05/19 08:37:35;;;;;;;6.43;1.77;;;18.10;97.30;;;;;;5021670;28;20038;-86
2023/05/19 08:40:03;;;;;;;6.78;1.63;;;18.20;97.70;;;;;;5010355;28;20111;-86
2023/05/19 08:42:29;;;;;;;8.50;2.13;;;17.60;96.60;;;;;;5012298;28;20483;-86
2023/05/19 08:44:55;;;;;;;9.68;2.05;;;17.90;96.30;;;;;;5029487;28;20125;-86
2023/05/19 08:47:58;;;;;;;4.45;1.40;;;17.90;96.90;;;;;;5015463;28;20041;-87
2023/05/19 08:50:46;;;;;;;5.88;1.75;;;17.60;96.50;;;;;;5027291;28;20049;-87
2023/05/19 08:53:56;;;;;;;8.02;1.92;;;17.80;95.50;;;;;;5017202;28;20514;-86
2023/05/19 09:00:28;;;;;;;4.75;1.55;;;17.90;96.20;;;;;;5044175;28;20085;-86
2023/05/19 09:03:25;;;;;;;5.78;1.48;;;17.70;96.00;;;;;;5028171;28;20076;-86
2023/05/19 09:05:51;;;;;;;12.23;2.25;;;17.90;96.40;;;;;;5038203;28;20360;-86
2023/05/19 09:08:17;;;;;;;7.07;1.70;;;18.10;96.90;;;;;;5028016;28;20041;-86
2023/05/19 09:10:44;;;;;;;5.80;1.52;;;17.90;96.90;;;;;;5015035;28;20515;-86
2023/05/19 09:13:10;;;;;;;6.60;1.90;;;18.20;96.90;;;;;;5013267;28;20107;-86
2023/05/19 09:15:37;;;;;;;9.73;2.00;;;18.70;97.60;;;;;;5026098;28;20051;-86
2023/05/19 09:18:14;;;;;;;8.50;2.13;;;18.60;97.90;;;;;;5046778;28;20048;-85
2023/05/19 09:20:46;;;;;;;5.95;1.70;;;18.80;97.70;;;;;;5008544;28;20065;-86
2023/05/19 09:23:14;;;;;;;6.82;1.85;;;18.80;94.70;;;;;;5030937;28;20053;-85
2023/05/19 09:25:58;;;;;;;4.30;1.65;;;18.40;95.30;;;;;;5015988;28;20064;-85
2023/05/19 09:28:35;;;;;;;7.90;1.38;;;18.20;95.40;;;;;;5031144;28;20415;-86
2023/05/19 09:31:08;;;;;;;3.92;1.48;;;18.20;96.20;;;;;;5027071;28;20029;-86
2023/05/19 09:33:36;;;;;;;9.15;1.88;;;18.50;96.30;;;;;;5013128;28;20432;-86
2023/05/19 09:36:05;;;;;;;6.57;1.63;;;18.60;95.70;;;;;;5034414;28;20065;-85
2023/05/19 09:38:31;;;;;;;7.70;1.48;;;18.60;95.70;;;;;;5040627;28;20479;-84
2023/05/19 09:41:28;;;;;;;6.55;1.90;;;18.50;95.80;;;;;;5023576;28;20073;-85
2023/05/19 09:43:55;;;;;;;6.88;2.00;;;18.30;94.80;;;;;;5013561;28;20527;-85
2023/05/19 09:46:27;;;;;;;7.72;1.90;;;18.10;95.00;;;;;;5020094;28;20668;-86
2023/05/19 09:48:57;;;;;;;7.47;2.35;;;17.90;95.30;;;;;;5007868;28;20100;-84
2023/05/19 09:51:28;;;;;;;5.18;1.27;;;17.90;94.90;;;;;;5021806;28;20026;-86
2023/05/19 09:53:58;;;;;;;5.78;1.65;;;18.10;97.20;;;;;;5024572;28;20124;-85
2023/05/19 09:56:31;;;;;;;5.10;1.33;;;18.50;97.50;;;;;;5020967;28;20042;-86
2023/05/19 09:58:57;;;;;;;5.97;1.52;;;18.60;95.50;;;;;;5028582;28;20063;-85
2023/05/19 10:01:26;;;;;;;7.43;1.92;;;18.80;97.10;;;;;;5025836;28;20510;-85
2023/05/19 10:03:53;;;;;;;6.05;1.63;;;18.70;94.20;;;;;;5019335;28;20195;-85
2023/05/19 10:06:30;;;;;;;5.35;1.42;;;18.70;95.00;;;;;;5028990;28;20447;-86
2023/05/19 10:08:58;;;;;;;4.05;1.63;;;19.10;95.00;;;;;;5022010;28;20040;-86
2023/05/19 10:11:43;;;;;;;5.97;1.65;;;19.00;94.90;;;;;;5012509;28;20036;-87
2023/05/19 10:14:53;;;;;;;14.68;2.42;;;19.20;95.40;;;;;;5015384;28;20609;-86
2023/05/19 10:17:27;;;;;;;6.68;2.00;;;19.50;95.60;;;;;;5024729;28;20032;-85
2023/05/19 10:20:21;;;;;;;5.00;1.88;;;19.60;94.70;;;;;;5014354;28;20040;-86
2023/05/19 10:31:05;;;;;;;4.97;1.80;;;19.20;95.40;;;;;;5014864;28;20136;-87
2023/05/19 10:34:11;;;;;;;5.65;1.92;;;19.20;94.90;;;;;;5103069;22;20419;-86
2023/05/19 10:37:05;;;;;;;5.85;1.50;;;19.40;95.10;;;;;;5052983;28;20074;-88
2023/05/19 10:39:46;;;;;;;6.00;1.45;;;19.30;96.60;;;;;;5086811;28;20127;-86
2023/05/19 10:53:36;;;;;;;5.05;1.77;;;19.10;94.10;;;;;;5066279;28;20094;-87
2023/05/19 10:56:50;;;;;;;4.82;2.15;;;19.30;95.60;;;;;;5083136;28;20063;-86
2023/05/19 11:00:28;;;;;;;5.68;1.42;;;19.20;93.80;;;;;;5063888;28;20047;-87
2023/05/19 11:06:50;;;;;;;6.85;1.75;;;19.70;94.40;;;;;;5084074;28;20055;-85
2023/05/19 11:09:57;;;;;;;8.30;2.33;;;19.60;95.50;;;;;;5088126;28;20040;-86
2023/05/19 11:12:55;;;;;;;4.35;1.77;;;19.70;95.00;;;;;;5053566;28;20075;-86
2023/05/19 11:15:35;;;;;;;5.32;1.23;;;19.80;94.50;;;;;;5052241;28;20044;-86
2023/05/19 11:18:03;;;;;;;6.32;1.40;;;19.80;93.30;;;;;;5053448;28;20044;-85
2023/05/19 11:20:39;;;;;;;4.05;1.65;;;19.80;93.00;;;;;;5067930;28;20032;-85
2023/05/19 11:23:17;;;;;;;5.22;1.40;;;19.90;94.10;;;;;;5053013;28;20489;-84
2023/05/19 11:26:02;;;;;;;7.50;1.65;;;19.90;92.60;;;;;;5067230;28;20442;-86
2023/05/19 11:28:29;;;;;;;4.85;1.58;;;19.80;95.50;;;;;;5046934;28;20033;-84
2023/05/19 11:30:57;;;;;;;10.43;1.60;;;20.10;95.70;;;;;;5053493;28;20041;-83
2023/05/19 11:33:25;;;;;;;8.25;1.48;;;20.20;93.60;;;;;;5070232;28;20047;-84
2023/05/19 11:35:53;;;;;;;6.55;1.65;;;20.10;93.00;;;;;;5071972;28;20040;-84
2023/05/19 11:38:20;;;;;;;6.28;2.10;;;19.70;91.50;;;;;;5065069;28;20049;-84
2023/05/19 11:40:48;;;;;;;9.48;1.60;;;19.40;92.30;;;;;;5072946;28;20043;-84
2023/05/19 11:43:15;;;;;;;7.45;1.92;;;19.50;93.30;;;;;;5064507;28;20064;-85
2023/05/19 11:45:41;;;;;;;6.47;1.45;;;19.40;93.50;;;;;;5067672;28;20084;-85
2023/05/19 11:48:11;;;;;;;5.43;1.40;;;19.00;93.70;;;;;;5073883;28;20101;-85
2023/05/19 11:50:39;;;;;;;3.13;1.23;;;18.70;92.90;;;;;;5069099;28;20064;-85
2023/05/19 11:53:04;;;;;;;4.63;1.30;;;18.80;93.80;;;;;;5067494;28;20044;-84
2023/05/19 11:55:30;;;;;;;5.63;1.70;;;18.60;92.80;;;;;;5068085;28;20128;-85
2023/05/19 11:58:01;;;;;;;7.75;1.88;;;18.70;92.70;;;;;;5067956;28;20804;-85
2023/05/19 12:00:28;;;;;;;5.30;1.73;;;18.60;94.00;;;;;;5072775;28;20037;-85
2023/05/19 12:02:53;;;;;;;5.70;1.63;;;18.70;94.50;;;;;;5066115;28;20092;-85
2023/05/19 12:05:22;;;;;;;6.00;1.67;;;18.90;94.20;;;;;;5064031;28;20128;-83
2023/05/19 12:07:51;;;;;;;6.65;1.67;;;18.60;94.00;;;;;;5061404;28;20040;-81
2023/05/19 12:10:23;;;;;;;3.17;1.15;;;18.60;94.60;;;;;;5068324;28;21287;-83
2023/05/19 12:12:50;;;;;;;7.20;2.20;;;18.90;96.10;;;;;;5065885;28;20036;-82
2023/05/19 12:15:20;;;;;;;6.82;2.17;;;19.10;95.70;;;;;;5068230;28;20407;-81
2023/05/19 12:17:50;;;;;;;5.43;1.85;;;19.30;95.10;;;;;;5064741;28;20110;-83
2023/05/19 12:20:19;;;;;;;8.55;1.50;;;19.40;95.20;;;;;;5071015;28;20036;-83
2023/05/19 12:22:46;;;;;;;5.13;1.65;;;19.40;95.90;;;;;;5067710;28;20040;-84
2023/05/19 12:25:13;;;;;;;8.30;2.22;;;19.40;95.70;;;;;;5068188;28;20040;-83
2023/05/19 12:27:42;;;;;;;9.45;3.20;;;19.50;96.00;;;;;;5065354;28;20977;-83
2023/05/19 12:30:09;;;;;;;10.80;1.63;;;19.50;95.70;;;;;;5069048;28;20108;-84
2023/05/19 12:32:35;;;;;;;8.38;2.08;;;19.40;95.10;;;;;;5084913;28;20091;-84
2023/05/19 12:35:03;;;;;;;7.35;1.95;;;19.40;95.20;;;;;;5065238;28;20491;-83
2023/05/19 12:37:29;;;;;;;8.05;2.60;;;19.20;95.20;;;;;;5068256;28;20514;-83
2023/05/19 12:39:55;;;;;;;6.97;2.03;;;19.20;95.50;;;;;;5065918;28;20066;-83
2023/05/19 12:42:22;;;;;;;8.18;1.80;;;19.00;94.90;;;;;;5066096;28;20044;-84
2023/05/19 12:44:51;;;;;;;6.63;1.90;;;18.90;95.50;;;;;;5079964;28;20043;-83
2023/05/19 12:47:21;;;;;;;7.40;1.80;;;19.00;95.10;;;;;;5066362;28;20105;-84
2023/05/19 12:49:54;;;;;;;5.65;2.00;;;19.10;95.70;;;;;;5069118;28;20044;-84
2023/05/19 12:52:22;;;;;;;7.18;1.88;;;19.30;94.10;;;;;;5075650;28;20040;-83
2023/05/19 12:55:00;;;;;;;6.85;1.48;;;19.50;95.50;;;;;;5065288;28;21062;-85
2023/05/19 12:57:29;;;;;;;5.43;2.05;;;19.40;94.90;;;;;;5059562;28;20049;-85
2023/05/19 13:00:00;;;;;;;6.50;1.60;;;19.20;94.10;;;;;;5064622;28;20036;-84
2023/05/19 13:02:25;;;;;;;6.28;1.50;;;19.40;94.90;;;;;;5066684;28;20039;-83
2023/05/19 13:04:53;;;;;;;10.20;1.63;;;19.40;95.40;;;;;;5072854;28;20032;-84
2023/05/19 13:07:19;;;;;;;5.72;1.40;;;19.40;95.20;;;;;;5063080;28;20032;-83
2023/05/19 13:09:44;;;;;;;5.00;1.70;;;19.50;95.40;;;;;;5065886;28;20025;-85
2023/05/19 13:12:10;;;;;;;8.85;1.50;;;19.60;94.20;;;;;;5064384;28;20128;-85
2023/05/19 13:14:40;;;;;;;8.57;1.52;;;19.60;94.40;;;;;;5062102;28;20478;-84
2023/05/19 13:17:06;;;;;;;6.50;1.38;;;19.70;95.00;;;;;;5065998;28;20041;-83
2023/05/19 13:19:31;;;;;;;12.70;2.15;;;19.90;95.00;;;;;;5061466;28;20044;-83
2023/05/19 13:21:57;;;;;;;9.93;1.95;;;19.80;93.30;;;;;;5066553;28;20510;-84
2023/05/19 13:24:23;;;;;;;7.70;1.80;;;19.60;93.50;;;;;;5063747;28;20446;-84
2023/05/19 13:26:49;;;;;;;6.78;1.27;;;19.50;91.80;;;;;;5061853;28;20033;-82
2023/05/19 13:29:14;;;;;;;11.93;2.00;;;19.60;93.70;;;;;;5061703;28;20041;-84
2023/05/19 13:31:40;;;;;;;8.82;1.88;;;19.50;92.90;;;;;;5065701;28;20388;-85
2023/05/19 13:34:05;;;;;;;5.38;1.30;;;19.30;93.20;;;;;;5063664;28;20116;-84
2023/05/19 13:36:35;;;;;;;7.75;2.58;;;19.30;93.60;;;;;;5066878;28;20401;-85